createdAt,value
2023-01-19T00:02:23.109Z,133.77
2023-01-19T00:04:56.362Z,133.70
2023-01-19T00:07:31.302Z,138.33
2023-01-19T00:10:05.303Z,135.07
2023-01-19T00:12:38.236Z,128.23
2023-01-19T00:15:12.707Z,130.47
2023-01-19T00:17:47.640Z,137.37
2023-01-19T00:20:22.036Z,128.63
2023-01-19T00:23:00.647Z,127.43
2023-01-19T00:25:35.746Z,132.77
2023-01-19T00:28:09.255Z,132.03
2023-01-19T00:30:43.278Z,135.33
2023-01-19T00:33:17.165Z,129.80
2023-01-19T00:35:56.548Z,133.80
2023-01-19T00:38:32.183Z,128.20
2023-01-19T00:41:05.683Z,128.47
2023-01-19T00:43:37.713Z,131.07
2023-01-19T00:46:11.123Z,126.13
2023-01-19T00:48:44.850Z,129.57
2023-01-19T00:51:20.089Z,131.37
2023-01-19T00:53:55.009Z,128.37
2023-01-19T00:56:28.751Z,116.53
2023-01-19T00:59:02.117Z,130.33
2023-01-19T01:01:45.183Z,121.37
2023-01-19T01:04:19.857Z,133.60
2023-01-19T01:06:52.777Z,135.27
2023-01-19T01:09:27.884Z,126.93
2023-01-19T01:12:01.246Z,133.30
2023-01-19T01:14:34.543Z,128.60
2023-01-19T01:17:12.777Z,122.87
2023-01-19T01:19:46.605Z,128.57
2023-01-19T01:22:20.145Z,132.93
2023-01-19T01:24:55.820Z,130.67
2023-01-19T01:27:29.254Z,130.13
2023-01-19T01:30:02.521Z,132.67
2023-01-19T01:32:36.301Z,131.40
2023-01-19T01:35:10.981Z,123.87
2023-01-19T01:37:44.924Z,119.30
2023-01-19T01:40:22.468Z,118.10
2023-01-19T01:42:56.555Z,118.50
2023-01-19T01:45:37.705Z,121.10
2023-01-19T01:48:14.396Z,116.07
2023-01-19T01:51:04.634Z,118.00
2023-01-19T01:53:40.068Z,115.93
2023-01-19T01:56:18.829Z,125.50
2023-01-19T01:58:53.514Z,120.70
2023-01-19T02:05:54.794Z,113.40
2023-01-19T02:08:54.695Z,109.53
2023-01-19T02:11:48.311Z,109.83
2023-01-19T02:14:22.501Z,107.50
2023-01-19T02:16:56.527Z,107.57
2023-01-19T02:19:34.971Z,103.80
2023-01-19T02:22:15.385Z,107.83
2023-01-19T02:24:51.517Z,109.80
2023-01-19T02:27:26.141Z,102.30
2023-01-19T02:30:00.043Z,105.57
2023-01-19T02:32:33.348Z,105.73
2023-01-19T02:35:06.873Z,112.43
2023-01-19T02:37:42.123Z,104.73
2023-01-19T02:40:26.493Z,102.57
2023-01-19T02:43:04.011Z,101.30
2023-01-19T02:45:40.538Z,102.20
2023-01-19T02:48:15.092Z,109.43
2023-01-19T02:50:51.638Z,112.80
2023-01-19T02:53:57.610Z,105.20
2023-01-19T02:56:47.061Z,119.20
2023-01-19T02:59:26.499Z,113.27
2023-01-19T03:02:27.518Z,105.77
2023-01-19T03:05:12.120Z,109.07
2023-01-19T03:07:53.922Z,102.77
2023-01-19T03:10:34.859Z,106.63
2023-01-19T03:13:18.927Z,112.10
2023-01-19T03:15:56.773Z,103.20
2023-01-19T03:18:32.991Z,99.23
2023-01-19T03:21:09.662Z,105.93
2023-01-19T03:23:46.797Z,106.23
2023-01-19T03:26:22.797Z,108.00
2023-01-19T03:29:00.684Z,106.33
2023-01-19T03:31:35.676Z,105.57
2023-01-19T03:34:13.249Z,106.30
2023-01-19T03:36:50.366Z,112.20
2023-01-19T03:39:27.115Z,113.23
2023-01-19T03:42:05.042Z,109.93
2023-01-19T03:44:43.789Z,108.30
2023-01-19T03:47:18.394Z,104.30
2023-01-19T03:49:53.760Z,108.27
2023-01-19T03:52:34.478Z,121.63
2023-01-19T03:55:09.129Z,100.60
2023-01-19T03:57:42.973Z,109.90
2023-01-19T04:00:22.176Z,101.80
2023-01-19T04:02:58.202Z,120.07
2023-01-19T04:05:34.691Z,110.97
2023-01-19T04:08:11.216Z,108.43
2023-01-19T04:10:46.806Z,116.03
2023-01-19T04:13:22.743Z,110.13
2023-01-19T04:16:00.629Z,120.70
2023-01-19T04:18:38.108Z,105.30
2023-01-19T04:21:15.335Z,107.60
2023-01-19T04:23:51.892Z,102.80
2023-01-19T04:26:27.588Z,108.17
2023-01-19T04:29:03.624Z,119.17
2023-01-19T04:31:41.891Z,114.13
2023-01-19T04:34:21.601Z,115.30
2023-01-19T04:36:57.799Z,111.00
2023-01-19T04:39:34.160Z,111.67
2023-01-19T04:42:10.542Z,112.93
2023-01-19T04:44:46.325Z,120.77
2023-01-19T04:47:23.936Z,106.90
2023-01-19T04:49:59.412Z,111.33
2023-01-19T04:52:38.995Z,121.63
2023-01-19T04:55:15.685Z,108.63
2023-01-19T04:57:52.101Z,99.93
2023-01-19T05:00:28.646Z,106.70
2023-01-19T05:03:06.412Z,102.17
2023-01-19T05:05:39.801Z,116.20
2023-01-19T05:08:14.430Z,110.90
2023-01-19T05:10:47.961Z,115.37
2023-01-19T05:13:21.657Z,115.30
2023-01-19T05:18:47.852Z,110.27
2023-01-19T05:21:21.664Z,107.53
2023-01-19T05:23:55.772Z,126.20
2023-01-19T05:26:29.133Z,104.53
2023-01-19T05:29:02.063Z,108.47
2023-01-19T05:31:36.393Z,109.23
2023-01-19T05:34:15.209Z,103.77
2023-01-19T05:36:48.974Z,103.70
2023-01-19T05:39:22.519Z,104.87
2023-01-19T05:41:55.458Z,110.50
2023-01-19T05:44:28.424Z,99.90
2023-01-19T05:47:01.446Z,94.63
2023-01-19T05:49:37.499Z,99.37
2023-01-19T05:52:11.601Z,91.27
2023-01-19T05:54:45.428Z,97.43
2023-01-19T05:57:19.009Z,92.83
2023-01-19T05:59:53.180Z,95.50
2023-01-19T06:02:29.870Z,87.00
2023-01-19T06:05:06.072Z,88.10
2023-01-19T06:07:42.466Z,102.10
2023-01-19T06:10:17.933Z,82.93
2023-01-19T06:12:52.988Z,93.63
2023-01-19T06:15:26.359Z,94.00
2023-01-19T06:17:59.810Z,97.43
2023-01-19T06:20:35.628Z,93.60
2023-01-19T06:23:09.599Z,94.63
2023-01-19T06:25:43.159Z,90.10
2023-01-19T06:28:16.670Z,88.20
2023-01-19T06:30:53.705Z,90.70
2023-01-19T06:33:29.429Z,95.60
2023-01-19T06:36:04.812Z,97.10
2023-01-19T06:38:38.572Z,89.83
2023-01-19T06:41:13.595Z,94.60
2023-01-19T06:43:46.678Z,99.93
2023-01-19T06:46:19.918Z,95.53
2023-01-19T06:48:53.015Z,103.93
2023-01-19T06:51:28.589Z,91.33
2023-01-19T06:54:02.322Z,99.43
2023-01-19T06:56:36.253Z,95.87
2023-01-19T06:59:09.810Z,89.97
2023-01-19T07:01:43.306Z,92.63
2023-01-19T07:04:17.189Z,86.67
2023-01-19T07:06:52.314Z,92.10
2023-01-19T07:09:26.758Z,91.03
2023-01-19T07:11:59.792Z,88.97
2023-01-19T07:14:35.542Z,95.43
2023-01-19T07:17:08.958Z,91.17
2023-01-19T07:19:42.123Z,87.77
2023-01-19T07:22:17.158Z,104.17
2023-01-19T07:24:51.397Z,94.60
2023-01-19T07:27:24.423Z,88.57
2023-01-19T07:29:58.576Z,88.70
2023-01-19T07:32:31.736Z,94.67
2023-01-19T07:35:05.607Z,91.97
2023-01-19T07:37:41.403Z,94.53
2023-01-19T07:40:15.646Z,85.00
2023-01-19T07:42:53.305Z,89.60
2023-01-19T07:45:27.900Z,98.90
2023-01-19T07:48:01.824Z,80.00
2023-01-19T07:50:36.328Z,90.70
2023-01-19T07:53:14.808Z,98.03
2023-01-19T07:55:48.406Z,83.73
2023-01-19T07:58:21.849Z,80.93
2023-01-19T08:00:55.650Z,100.10
2023-01-19T08:03:29.264Z,92.93
2023-01-19T08:06:02.581Z,90.73
2023-01-19T08:08:38.924Z,88.43
2023-01-19T08:11:12.213Z,90.70
2023-01-19T08:13:45.338Z,87.63
2023-01-19T08:16:18.599Z,95.87
2023-01-19T08:18:52.087Z,84.17
2023-01-19T08:21:25.495Z,87.43
2023-01-19T08:24:00.997Z,78.53
2023-01-19T08:26:36.064Z,84.13
2023-01-19T08:29:10.103Z,89.97
2023-01-19T08:31:44.107Z,90.70
2023-01-19T08:34:17.842Z,92.47
2023-01-19T08:36:51.023Z,77.13
2023-01-19T08:39:27.045Z,89.97
2023-01-19T08:42:02.507Z,84.80
2023-01-19T08:44:36.626Z,83.37
2023-01-19T08:47:12.812Z,87.23
2023-01-19T08:49:46.371Z,84.87
2023-01-19T08:52:20.853Z,79.07
2023-01-19T08:54:56.601Z,84.80
2023-01-19T08:57:30.916Z,95.77
2023-01-19T09:00:04.045Z,82.93
2023-01-19T09:02:37.290Z,87.07
2023-01-19T09:05:13.809Z,90.40
2023-01-19T09:07:49.578Z,89.80
2023-01-19T09:10:25.580Z,83.03
2023-01-19T09:13:05.823Z,85.60
2023-01-19T09:15:41.131Z,88.67
2023-01-19T09:18:15.760Z,87.97
2023-01-19T09:20:50.028Z,84.87
2023-01-19T09:23:24.843Z,96.07
2023-01-19T09:26:04.256Z,92.77
2023-01-19T09:28:37.628Z,89.23
2023-01-19T09:31:12.155Z,83.00
2023-01-19T09:33:46.003Z,91.40
2023-01-19T09:39:16.621Z,89.40
2023-01-19T09:41:59.691Z,86.20
2023-01-19T09:44:36.077Z,80.70
2023-01-19T09:47:19.384Z,88.10
2023-01-19T09:49:59.899Z,87.30
2023-01-19T09:52:35.650Z,88.53
2023-01-19T09:55:23.963Z,88.40
2023-01-19T09:58:00.198Z,87.90
2023-01-19T10:00:36.179Z,79.80
2023-01-19T10:03:19.161Z,80.27
2023-01-19T10:05:56.680Z,88.57
2023-01-19T10:08:39.416Z,89.60
2023-01-19T10:11:31.831Z,78.63
2023-01-19T10:14:19.588Z,84.33
2023-01-19T10:17:05.251Z,90.57
2023-01-19T10:19:41.191Z,93.77
2023-01-19T10:22:24.874Z,90.60
2023-01-19T10:24:59.866Z,89.23
2023-01-19T10:27:35.442Z,88.27
2023-01-19T10:30:13.612Z,92.57
2023-01-19T10:32:47.660Z,90.63
2023-01-19T10:35:26.042Z,96.67
2023-01-19T10:38:04.088Z,100.30
2023-01-19T10:40:44.266Z,91.73
2023-01-19T10:43:47.785Z,91.77
2023-01-19T10:46:26.786Z,93.90
2023-01-19T10:49:00.580Z,95.90
2023-01-19T10:51:34.260Z,91.47
2023-01-19T10:54:08.935Z,92.83
2023-01-19T10:56:44.145Z,100.80
2023-01-19T10:59:35.664Z,93.33
2023-01-19T11:02:21.303Z,94.57
2023-01-19T11:05:00.230Z,97.70
2023-01-19T11:10:28.674Z,98.80
2023-01-19T11:13:06.242Z,93.17
2023-01-19T11:15:45.687Z,95.47
2023-01-19T11:18:31.593Z,94.50
2023-01-19T11:21:09.180Z,92.63
2023-01-19T11:23:46.926Z,103.57
2023-01-19T11:26:29.353Z,90.97
2023-01-19T11:29:04.810Z,92.93
2023-01-19T11:31:39.803Z,101.67
2023-01-19T11:34:35.540Z,90.73
2023-01-19T11:37:10.550Z,100.60
2023-01-19T11:39:52.724Z,100.27
2023-01-19T11:42:26.950Z,98.00
2023-01-19T11:45:19.603Z,94.30
2023-01-19T11:48:01.062Z,89.67
2023-01-19T11:50:43.674Z,88.53
2023-01-19T11:53:21.562Z,86.90
2023-01-19T11:56:00.345Z,103.97
2023-01-19T11:58:34.494Z,94.63
2023-01-19T12:01:14.480Z,92.67
2023-01-19T12:03:54.679Z,95.07
2023-01-19T12:06:34.657Z,85.30
2023-01-19T12:09:15.729Z,90.40
2023-01-19T12:11:52.984Z,96.03
2023-01-19T12:14:30.476Z,98.87
2023-01-19T12:17:09.334Z,86.33
2023-01-19T12:19:52.886Z,91.10
2023-01-19T12:22:33.340Z,99.13
2023-01-19T12:25:16.511Z,91.13
2023-01-19T12:27:52.051Z,90.10
2023-01-19T12:30:30.852Z,83.13
2023-01-19T12:33:27.210Z,89.30
2023-01-19T12:36:05.620Z,86.43
2023-01-19T12:38:53.984Z,83.97
2023-01-19T12:41:32.677Z,92.37
2023-01-19T12:44:35.692Z,91.50
2023-01-19T12:47:26.383Z,90.73
2023-01-19T12:50:07.127Z,96.97
2023-01-19T12:52:49.570Z,87.27
2023-01-19T12:55:29.509Z,88.07
2023-01-19T12:58:07.818Z,95.67
2023-01-19T13:00:44.133Z,90.00
2023-01-19T13:03:55.576Z,88.80
2023-01-19T13:07:19.644Z,96.20
2023-01-19T13:09:54.693Z,91.97
2023-01-19T13:12:33.319Z,85.80
2023-01-19T13:15:33.839Z,91.73
2023-01-19T13:18:10.782Z,95.47
2023-01-19T13:20:55.382Z,85.57
2023-01-19T13:23:32.675Z,83.73
2023-01-19T13:26:10.531Z,87.17
2023-01-19T13:28:50.594Z,85.00
2023-01-19T13:31:26.201Z,87.30
2023-01-19T13:34:03.814Z,80.30
2023-01-19T13:36:41.113Z,83.50
2023-01-19T13:39:20.571Z,90.47
2023-01-19T13:41:57.686Z,90.23
2023-01-19T13:44:40.875Z,87.40
2023-01-19T13:47:25.732Z,80.50
2023-01-19T13:50:03.450Z,83.10
2023-01-19T13:52:39.757Z,87.17
2023-01-19T13:55:24.395Z,76.17
2023-01-19T13:57:59.592Z,81.67
2023-01-19T14:00:37.484Z,81.00
2023-01-19T14:03:25.162Z,77.53
2023-01-19T14:06:01.891Z,91.57
2023-01-19T14:08:37.061Z,88.73
2023-01-19T14:11:18.056Z,90.67
2023-01-19T14:13:54.285Z,80.83
2023-01-19T14:16:32.573Z,81.70
2023-01-19T14:19:14.315Z,80.63
2023-01-19T14:21:50.735Z,85.80
2023-01-19T14:24:32.408Z,77.13
2023-01-19T14:27:24.616Z,77.83
2023-01-19T14:30:19.010Z,78.87
2023-01-19T14:32:57.348Z,78.87
2023-01-19T14:35:34.125Z,75.40
2023-01-19T14:38:10.175Z,71.17
2023-01-19T14:40:46.219Z,71.37
2023-01-19T14:43:23.818Z,66.03
2023-01-19T14:45:59.915Z,77.87
2023-01-19T14:48:37.119Z,72.60
2023-01-19T14:51:12.526Z,76.57
2023-01-19T14:53:54.275Z,74.20
2023-01-19T14:56:33.865Z,84.37
2023-01-19T14:59:14.800Z,71.60
2023-01-19T15:01:50.297Z,72.07
2023-01-19T15:04:27.812Z,74.07
2023-01-19T15:07:03.329Z,72.63
2023-01-19T15:09:45.378Z,79.27
2023-01-19T15:12:22.514Z,72.43
2023-01-19T15:14:56.779Z,78.33
2023-01-19T15:17:33.833Z,73.77
2023-01-19T15:20:19.236Z,71.73
2023-01-19T15:22:57.733Z,66.70
2023-01-19T15:25:33.389Z,71.33
2023-01-19T15:28:14.218Z,68.63
2023-01-19T15:30:49.163Z,73.97
2023-01-19T15:33:26.879Z,68.83
2023-01-19T15:36:03.451Z,73.83
2023-01-19T15:38:38.426Z,75.13
2023-01-19T15:41:18.677Z,70.03
2023-01-19T15:43:54.024Z,69.40
2023-01-19T15:46:30.187Z,67.27
2023-01-19T15:49:06.975Z,63.63
2023-01-19T15:51:43.073Z,69.70
2023-01-19T15:54:19.620Z,64.20
2023-01-19T15:56:54.458Z,66.90
2023-01-19T15:59:29.017Z,71.50
2023-01-19T16:02:03.069Z,58.53
2023-01-19T16:04:37.727Z,70.23
2023-01-19T16:07:16.040Z,71.87
2023-01-19T16:09:51.290Z,69.90
2023-01-19T16:12:25.486Z,73.97
2023-01-19T16:14:59.809Z,65.17
2023-01-19T16:17:34.739Z,67.90
2023-01-19T16:20:14.306Z,70.37
2023-01-19T16:22:50.532Z,70.27
2023-01-19T16:25:25.077Z,71.53
2023-01-19T16:27:58.762Z,67.47
2023-01-19T16:30:33.254Z,73.30
2023-01-19T16:33:07.114Z,69.07
2023-01-19T16:35:40.764Z,69.80
2023-01-19T16:38:16.034Z,75.47
2023-01-19T16:40:51.824Z,78.03
2023-01-19T16:43:26.292Z,69.47
2023-01-19T16:46:05.508Z,68.53
2023-01-19T16:48:39.890Z,77.17
2023-01-19T16:51:13.344Z,75.83
2023-01-19T16:53:49.267Z,73.00
2023-01-19T16:56:23.491Z,80.30
2023-01-19T16:59:01.185Z,79.73
2023-01-19T17:01:34.891Z,72.60
2023-01-19T17:04:20.952Z,80.60
2023-01-19T17:06:56.542Z,75.83
2023-01-19T17:09:31.513Z,69.20
2023-01-19T17:12:04.795Z,82.53
2023-01-19T17:14:38.967Z,83.83
2023-01-19T17:17:14.251Z,80.90
2023-01-19T17:19:48.858Z,81.80
2023-01-19T17:22:22.649Z,75.47
2023-01-19T17:24:57.940Z,79.30
2023-01-19T17:27:31.628Z,93.37
2023-01-19T17:30:05.391Z,77.77
2023-01-19T17:33:11.412Z,75.83
2023-01-19T17:35:46.816Z,81.97
2023-01-19T17:38:20.754Z,77.57
2023-01-19T17:40:56.889Z,74.67
2023-01-19T17:43:30.844Z,77.83
2023-01-19T17:46:05.723Z,74.47
2023-01-19T17:48:39.377Z,83.23
2023-01-19T17:51:15.337Z,75.13
2023-01-19T17:53:48.946Z,77.33
2023-01-19T17:56:28.946Z,72.93
2023-01-19T17:59:02.988Z,72.50
2023-01-19T18:01:39.504Z,73.27
2023-01-19T18:04:13.670Z,79.13
2023-01-19T18:06:48.707Z,76.57
2023-01-19T18:09:22.660Z,74.57
2023-01-19T18:11:58.783Z,80.03
2023-01-19T18:14:32.141Z,78.40
2023-01-19T18:17:05.784Z,77.10
2023-01-19T18:19:39.220Z,71.77
2023-01-19T18:22:12.814Z,77.53
2023-01-19T18:24:47.301Z,77.33
2023-01-19T18:27:23.457Z,79.13
2023-01-19T18:29:57.249Z,79.90
2023-01-19T18:32:30.763Z,74.57
2023-01-19T18:35:24.772Z,77.13
2023-01-19T18:37:59.731Z,69.80
2023-01-19T18:40:33.486Z,80.27
2023-01-19T18:43:09.451Z,78.07
2023-01-19T18:45:43.321Z,74.97
2023-01-19T18:48:18.050Z,83.80
2023-01-19T18:50:51.463Z,78.43
2023-01-19T18:53:24.842Z,79.07
2023-01-19T18:55:59.715Z,79.07
2023-01-19T18:58:35.801Z,81.00
2023-01-19T19:01:20.455Z,81.57
2023-01-19T19:03:54.576Z,83.70
2023-01-19T19:06:29.070Z,72.50
2023-01-19T19:09:04.558Z,76.40
2023-01-19T19:11:38.281Z,78.67
2023-01-19T19:14:14.423Z,76.13
2023-01-19T19:16:48.079Z,76.10
2023-01-19T19:19:21.425Z,76.37
2023-01-19T19:21:54.893Z,73.63
2023-01-19T19:24:28.134Z,70.97
2023-01-19T19:27:01.974Z,81.27
2023-01-19T19:29:37.701Z,79.43
2023-01-19T19:32:11.085Z,79.10
2023-01-19T19:34:44.993Z,78.97
2023-01-19T19:37:18.815Z,74.03
2023-01-19T19:39:53.707Z,78.80
2023-01-19T19:42:27.473Z,83.67
2023-01-19T19:45:02.823Z,79.90
2023-01-19T19:47:39.114Z,79.37
2023-01-19T19:50:13.532Z,89.23
2023-01-19T19:52:46.959Z,83.20
2023-01-19T19:55:20.313Z,83.70
2023-01-19T19:57:54.191Z,85.77
2023-01-19T20:00:29.319Z,85.57
2023-01-19T20:03:03.431Z,75.53
2023-01-19T20:05:39.997Z,75.50
2023-01-19T20:08:14.582Z,75.60
2023-01-19T20:10:48.042Z,80.30
2023-01-19T20:13:22.454Z,77.13
2023-01-19T20:15:57.542Z,81.93
2023-01-19T20:18:30.869Z,72.67
2023-01-19T20:21:04.203Z,80.20
2023-01-19T20:23:38.800Z,85.83
2023-01-19T20:26:13.513Z,75.27
2023-01-19T20:28:47.571Z,77.23
2023-01-19T20:31:25.189Z,83.00
2023-01-19T20:34:00.273Z,78.73
2023-01-19T20:36:34.240Z,77.20
2023-01-19T20:39:10.757Z,82.20
2023-01-19T20:41:48.090Z,83.67
2023-01-19T20:44:24.822Z,80.67
2023-01-19T20:47:00.632Z,76.83
2023-01-19T20:49:34.533Z,78.13
2023-01-19T20:52:08.241Z,78.77
2023-01-19T20:54:41.295Z,76.53
2023-01-19T20:57:14.236Z,78.70
2023-01-19T20:59:48.966Z,82.77
2023-01-19T21:02:23.942Z,82.23
2023-01-19T21:04:57.667Z,78.60
2023-01-19T21:07:31.162Z,75.20
2023-01-19T21:10:04.977Z,79.47
2023-01-19T21:12:38.673Z,77.23
2023-01-19T21:15:12.969Z,75.27
2023-01-19T21:17:47.944Z,79.73
2023-01-19T21:20:22.432Z,78.43
2023-01-19T21:22:56.660Z,83.60
2023-01-19T21:25:30.203Z,83.80
2023-01-19T21:28:03.672Z,80.03
2023-01-19T21:30:40.017Z,80.57
2023-01-19T21:33:15.800Z,71.57
2023-01-19T21:35:55.968Z,78.13
2023-01-19T21:38:30.419Z,82.67
2023-01-19T21:41:08.594Z,77.17
2023-01-19T21:43:44.142Z,77.53
2023-01-19T21:46:20.615Z,94.30
2023-01-19T21:48:56.198Z,82.57
2023-01-19T21:51:30.017Z,83.43
2023-01-19T21:54:03.996Z,92.57
2023-01-19T21:56:39.166Z,87.90
2023-01-19T21:59:12.738Z,94.17
2023-01-19T22:01:47.231Z,85.87
2023-01-19T22:04:22.120Z,86.13
2023-01-19T22:06:55.447Z,75.23
2023-01-19T22:09:29.481Z,86.67
2023-01-19T22:12:03.385Z,80.03
2023-01-19T22:14:36.803Z,84.30
2023-01-19T22:17:10.455Z,85.23
2023-01-19T22:19:45.631Z,85.77
2023-01-19T22:22:18.620Z,83.30
2023-01-19T22:24:54.582Z,79.27
2023-01-19T22:27:28.318Z,81.83
2023-01-19T22:30:02.196Z,80.03
2023-01-19T22:32:36.262Z,87.33
2023-01-19T22:35:12.201Z,83.47
2023-01-19T22:37:45.873Z,83.23
2023-01-19T22:40:19.187Z,79.23
2023-01-19T22:42:52.575Z,85.33
2023-01-19T22:45:25.504Z,87.77
2023-01-19T22:47:58.461Z,86.80
2023-01-19T22:50:33.388Z,84.67
2023-01-19T22:53:07.993Z,93.63
2023-01-19T22:55:43.948Z,92.27
2023-01-19T22:58:17.043Z,89.50
2023-01-19T23:00:50.903Z,90.37
2023-01-19T23:03:24.957Z,91.60
2023-01-19T23:06:00.617Z,86.67
2023-01-19T23:08:34.444Z,85.87
2023-01-19T23:11:11.816Z,91.77
2023-01-19T23:13:45.320Z,92.40
2023-01-19T23:16:18.670Z,91.57
2023-01-19T23:18:56.126Z,90.77
2023-01-19T23:21:31.890Z,93.73
2023-01-19T23:24:07.330Z,95.87
2023-01-19T23:26:41.172Z,91.70
2023-01-19T23:29:17.143Z,89.90
2023-01-19T23:31:54.641Z,97.03
2023-01-19T23:34:28.472Z,86.50
2023-01-19T23:37:04.198Z,95.57
2023-01-19T23:39:37.746Z,93.67
2023-01-19T23:42:11.669Z,90.90
2023-01-19T23:44:46.645Z,95.00
2023-01-19T23:47:20.270Z,96.60
2023-01-19T23:49:53.611Z,99.07
2023-01-19T23:52:29.339Z,98.73
2023-01-19T23:55:02.440Z,97.47
2023-01-19T23:57:36.194Z,95.77
